createdAt,value
2023-04-09T00:00:35.900Z,8.37
2023-04-09T00:01:36.657Z,8.39
2023-04-09T00:02:37.402Z,8.39
2023-04-09T00:03:38.174Z,8.39
2023-04-09T00:04:38.877Z,8.40
2023-04-09T00:05:39.559Z,8.40
2023-04-09T00:06:40.250Z,8.40
2023-04-09T00:07:42.194Z,8.39
2023-04-09T00:08:41.630Z,8.37
2023-04-09T00:09:43.190Z,8.37
2023-04-09T00:10:44.091Z,8.36
2023-04-09T00:11:44.209Z,8.36
2023-04-09T00:12:44.919Z,8.36
2023-04-09T00:13:45.659Z,8.37
2023-04-09T00:14:46.432Z,8.34
2023-04-09T00:15:47.681Z,8.37
2023-04-09T00:16:47.799Z,8.36
2023-04-09T00:17:48.521Z,8.32
2023-04-09T00:18:49.675Z,8.32
2023-04-09T00:19:49.960Z,8.34
2023-04-09T00:20:50.652Z,8.31
2023-04-09T00:21:51.372Z,8.32
2023-04-09T00:22:52.098Z,8.34
2023-04-09T00:23:52.830Z,8.32
2023-04-09T00:24:53.533Z,8.31
2023-04-09T00:25:54.263Z,8.31
2023-04-09T00:26:55.000Z,8.36
2023-04-09T00:27:55.695Z,8.32
2023-04-09T00:28:56.422Z,8.32
2023-04-09T00:29:57.165Z,8.31
2023-04-09T00:30:57.840Z,8.32
2023-04-09T00:31:58.600Z,8.28
2023-04-09T00:32:59.315Z,8.31
2023-04-09T00:33:59.983Z,8.31
2023-04-09T00:35:00.706Z,8.29
2023-04-09T00:36:01.464Z,8.34
2023-04-09T00:37:02.128Z,8.31
2023-04-09T00:38:02.819Z,8.31
2023-04-09T00:39:03.505Z,8.31
2023-04-09T00:40:04.248Z,8.29
2023-04-09T00:41:04.975Z,8.28
2023-04-09T00:42:05.738Z,8.28
2023-04-09T00:43:06.411Z,8.27
2023-04-09T00:44:07.239Z,8.25
2023-04-09T00:45:08.006Z,8.24
2023-04-09T00:46:08.879Z,8.25
2023-04-09T00:47:10.148Z,8.25
2023-04-09T00:48:10.544Z,8.27
2023-04-09T00:49:11.730Z,8.25
2023-04-09T00:50:11.889Z,8.25
2023-04-09T00:51:12.773Z,8.24
2023-04-09T00:52:13.609Z,8.25
2023-04-09T00:53:14.448Z,8.22
2023-04-09T00:54:15.524Z,8.22
2023-04-09T00:55:15.849Z,8.21
2023-04-09T00:56:17.087Z,8.21
2023-04-09T00:57:17.351Z,8.21
2023-04-09T00:58:18.223Z,8.24
2023-04-09T00:59:19.237Z,8.20
2023-04-09T01:00:20.343Z,8.18
2023-04-09T01:01:20.510Z,8.18
2023-04-09T01:02:21.424Z,8.20
2023-04-09T01:03:22.299Z,8.18
2023-04-09T01:04:23.110Z,8.17
2023-04-09T01:05:23.805Z,8.18
2023-04-09T01:06:24.557Z,8.17
2023-04-09T01:07:25.301Z,8.18
2023-04-09T01:08:25.990Z,8.17
2023-04-09T01:09:26.726Z,8.17
2023-04-09T01:10:27.456Z,8.18
2023-04-09T01:11:28.168Z,8.18
2023-04-09T01:12:28.846Z,8.17
2023-04-09T01:13:29.533Z,8.20
2023-04-09T01:14:30.249Z,8.18
2023-04-09T01:15:30.913Z,8.18
2023-04-09T01:16:31.688Z,8.21
2023-04-09T01:17:32.413Z,8.20
2023-04-09T01:18:33.104Z,8.21
2023-04-09T01:19:34.132Z,8.21
2023-04-09T01:20:34.815Z,8.21
2023-04-09T01:21:35.504Z,8.22
2023-04-09T01:22:36.212Z,8.20
2023-04-09T01:23:36.903Z,8.21
2023-04-09T01:24:37.591Z,8.21
2023-04-09T01:25:38.280Z,8.22
2023-04-09T01:26:39.011Z,8.24
2023-04-09T01:27:39.723Z,8.22
2023-04-09T01:28:40.462Z,8.24
2023-04-09T01:29:41.148Z,8.22
2023-04-09T01:30:41.884Z,8.22
2023-04-09T01:31:42.619Z,8.21
2023-04-09T01:32:43.384Z,8.21
2023-04-09T01:33:44.133Z,8.20
2023-04-09T01:34:44.883Z,8.20
2023-04-09T01:35:45.611Z,8.21
2023-04-09T01:36:46.371Z,8.21
2023-04-09T01:37:47.119Z,8.22
2023-04-09T01:38:47.784Z,8.20
2023-04-09T01:39:48.466Z,8.18
2023-04-09T01:40:49.196Z,8.20
2023-04-09T01:41:49.877Z,8.20
2023-04-09T01:42:50.564Z,8.21
2023-04-09T01:43:51.274Z,8.18
2023-04-09T01:44:51.935Z,8.20
2023-04-09T01:45:52.639Z,8.17
2023-04-09T01:46:53.349Z,8.17
2023-04-09T01:48:04.138Z,8.17
2023-04-09T01:49:03.551Z,8.14
2023-04-09T01:50:04.634Z,8.14
2023-04-09T01:51:08.152Z,8.17
2023-04-09T01:51:57.247Z,8.14
2023-04-09T01:52:57.943Z,8.17
2023-04-09T01:53:58.631Z,8.17
2023-04-09T01:54:59.672Z,8.12
2023-04-09T01:56:00.475Z,8.12
2023-04-09T01:57:01.511Z,8.07
2023-04-09T01:58:01.660Z,8.07
2023-04-09T01:59:02.462Z,8.07
2023-04-09T02:00:03.234Z,8.07
2023-04-09T02:01:04.563Z,8.04
2023-04-09T02:02:04.763Z,8.07
2023-04-09T02:03:05.835Z,8.04
2023-04-09T02:04:06.641Z,8.04
2023-04-09T02:05:07.688Z,8.03
2023-04-09T02:06:08.436Z,8.04
2023-04-09T02:07:09.154Z,8.04
2023-04-09T02:08:09.886Z,8.02
2023-04-09T02:09:10.592Z,8.00
2023-04-09T02:10:11.318Z,7.99
2023-04-09T02:11:12.013Z,7.96
2023-04-09T02:12:12.728Z,7.99
2023-04-09T02:13:13.395Z,7.94
2023-04-09T02:14:14.106Z,7.94
2023-04-09T02:15:14.826Z,7.94
2023-04-09T02:16:15.607Z,7.92
2023-04-09T02:17:16.410Z,7.92
2023-04-09T02:18:17.105Z,7.91
2023-04-09T02:19:17.789Z,7.89
2023-04-09T02:20:18.511Z,7.88
2023-04-09T02:21:19.282Z,7.86
2023-04-09T02:22:20.007Z,7.85
2023-04-09T02:23:20.740Z,7.85
2023-04-09T02:24:21.479Z,7.88
2023-04-09T02:25:22.178Z,7.88
2023-04-09T02:26:22.886Z,7.86
2023-04-09T02:27:23.574Z,7.88
2023-04-09T02:28:24.267Z,7.89
2023-04-09T02:29:24.975Z,7.89
2023-04-09T02:30:25.671Z,7.88
2023-04-09T02:31:26.441Z,7.89
2023-04-09T02:32:27.208Z,7.89
2023-04-09T02:33:27.872Z,7.89
2023-04-09T02:34:28.588Z,7.88
2023-04-09T02:35:29.308Z,7.89
2023-04-09T02:36:29.997Z,7.86
2023-04-09T02:37:30.695Z,7.86
2023-04-09T02:38:31.376Z,7.86
2023-04-09T02:39:32.081Z,7.85
2023-04-09T02:40:32.772Z,7.85
2023-04-09T02:41:33.470Z,7.85
2023-04-09T02:42:34.152Z,7.82
2023-04-09T02:43:34.874Z,7.82
2023-04-09T02:44:35.589Z,7.82
2023-04-09T02:45:36.387Z,7.82
2023-04-09T02:46:37.233Z,7.82
2023-04-09T02:47:38.110Z,7.81
2023-04-09T02:48:38.968Z,7.79
2023-04-09T02:49:39.655Z,7.84
2023-04-09T02:50:40.337Z,7.81
2023-04-09T02:51:41.047Z,7.84
2023-04-09T02:52:41.811Z,7.81
2023-04-09T02:53:42.467Z,7.82
2023-04-09T02:54:43.232Z,7.82
2023-04-09T02:55:43.921Z,7.82
2023-04-09T02:56:44.657Z,7.81
2023-04-09T02:57:45.335Z,7.79
2023-04-09T02:58:46.084Z,7.76
2023-04-09T02:59:46.850Z,7.77
2023-04-09T03:00:47.578Z,7.76
2023-04-09T03:01:48.337Z,7.74
2023-04-09T03:02:49.144Z,7.76
2023-04-09T03:03:49.993Z,7.73
2023-04-09T03:04:50.854Z,7.74
2023-04-09T03:05:51.591Z,7.73
2023-04-09T03:06:52.328Z,7.73
2023-04-09T03:07:53.016Z,7.70
2023-04-09T03:08:53.831Z,7.71
2023-04-09T03:09:54.584Z,7.73
2023-04-09T03:10:55.350Z,7.73
2023-04-09T03:11:56.046Z,7.73
2023-04-09T03:12:56.763Z,7.71
2023-04-09T03:13:57.531Z,7.71
2023-04-09T03:14:58.366Z,7.74
2023-04-09T03:15:59.119Z,7.71
2023-04-09T03:16:59.815Z,7.73
2023-04-09T03:18:00.577Z,7.71
2023-04-09T03:19:01.279Z,7.71
2023-04-09T03:20:02.001Z,7.71
2023-04-09T03:21:02.726Z,7.71
2023-04-09T03:22:03.540Z,7.70
2023-04-09T03:23:04.279Z,7.70
2023-04-09T03:24:04.976Z,7.71
2023-04-09T03:25:05.686Z,7.71
2023-04-09T03:26:06.429Z,7.70
2023-04-09T03:27:07.268Z,7.70
2023-04-09T03:28:07.976Z,7.67
2023-04-09T03:29:08.710Z,7.67
2023-04-09T03:30:09.408Z,7.69
2023-04-09T03:31:10.164Z,7.69
2023-04-09T03:32:10.820Z,7.70
2023-04-09T03:33:11.511Z,7.67
2023-04-09T03:34:12.275Z,7.69
2023-04-09T03:35:13.010Z,7.67
2023-04-09T03:36:13.849Z,7.69
2023-04-09T03:37:14.534Z,7.66
2023-04-09T03:38:15.237Z,7.67
2023-04-09T03:39:15.938Z,7.63
2023-04-09T03:40:16.634Z,7.67
2023-04-09T03:41:17.405Z,7.67
2023-04-09T03:42:18.128Z,7.66
2023-04-09T03:43:18.817Z,7.66
2023-04-09T03:44:19.559Z,7.62
2023-04-09T03:45:20.255Z,7.63
2023-04-09T03:46:21.113Z,7.60
2023-04-09T03:47:21.855Z,7.60
2023-04-09T03:48:22.541Z,7.58
2023-04-09T03:49:23.279Z,7.55
2023-04-09T03:50:23.975Z,7.57
2023-04-09T03:51:24.702Z,7.57
2023-04-09T03:52:25.391Z,7.54
2023-04-09T03:53:26.140Z,7.58
2023-04-09T03:54:26.823Z,7.57
2023-04-09T03:55:27.526Z,7.57
2023-04-09T03:56:28.246Z,7.55
2023-04-09T03:57:28.994Z,7.54
2023-04-09T03:58:29.706Z,7.57
2023-04-09T03:59:30.446Z,7.55
2023-04-09T04:00:31.193Z,7.55
2023-04-09T04:01:31.977Z,7.57
2023-04-09T04:02:32.765Z,7.58
2023-04-09T04:03:33.665Z,7.55
2023-04-09T04:04:34.605Z,7.57
2023-04-09T04:05:35.371Z,7.55
2023-04-09T04:06:36.106Z,7.58
2023-04-09T04:07:36.841Z,7.55
2023-04-09T04:08:37.515Z,7.60
2023-04-09T04:09:38.204Z,7.57
2023-04-09T04:10:38.917Z,7.57
2023-04-09T04:11:39.634Z,7.60
2023-04-09T04:12:40.330Z,7.57
2023-04-09T04:13:41.197Z,7.58
2023-04-09T04:14:41.912Z,7.57
2023-04-09T04:15:42.616Z,7.58
2023-04-09T04:16:43.348Z,7.60
2023-04-09T04:17:44.192Z,7.57
2023-04-09T04:18:45.057Z,7.58
2023-04-09T04:19:45.807Z,7.57
2023-04-09T04:20:46.558Z,7.60
2023-04-09T04:21:47.268Z,7.62
2023-04-09T04:22:48.000Z,7.57
2023-04-09T04:23:48.734Z,7.62
2023-04-09T04:24:49.447Z,7.60
2023-04-09T04:25:50.182Z,7.62
2023-04-09T04:26:50.872Z,7.58
2023-04-09T04:27:51.562Z,7.60
2023-04-09T04:28:52.439Z,7.60
2023-04-09T04:29:53.274Z,7.60
2023-04-09T04:30:54.023Z,7.57
2023-04-09T04:31:54.854Z,7.58
2023-04-09T04:33:02.323Z,7.58
2023-04-09T04:33:56.113Z,7.58
2023-04-09T04:34:57.567Z,7.57
2023-04-09T04:35:58.310Z,7.57
2023-04-09T04:36:58.430Z,7.55
2023-04-09T04:37:59.117Z,7.55
2023-04-09T04:38:59.835Z,7.54
2023-04-09T04:40:00.564Z,7.54
2023-04-09T04:41:01.361Z,7.52
2023-04-09T04:42:02.043Z,7.54
2023-04-09T04:43:02.753Z,7.54
2023-04-09T04:44:03.472Z,7.54
2023-04-09T04:45:04.264Z,7.52
2023-04-09T04:46:05.072Z,7.52
2023-04-09T04:47:05.743Z,7.50
2023-04-09T04:48:06.447Z,7.51
2023-04-09T04:49:07.167Z,7.48
2023-04-09T04:50:07.901Z,7.48
2023-04-09T04:51:08.580Z,7.48
2023-04-09T04:52:09.286Z,7.48
2023-04-09T04:53:09.985Z,7.48
2023-04-09T04:54:10.671Z,7.47
2023-04-09T04:55:11.389Z,7.47
2023-04-09T04:56:12.079Z,7.45
2023-04-09T04:57:12.810Z,7.44
2023-04-09T04:58:13.491Z,7.45
2023-04-09T04:59:14.214Z,7.44
2023-04-09T05:00:14.931Z,7.42
2023-04-09T05:01:15.632Z,7.44
2023-04-09T05:02:16.371Z,7.42
2023-04-09T05:03:17.230Z,7.45
2023-04-09T05:04:17.978Z,7.44
2023-04-09T05:05:18.702Z,7.45
2023-04-09T05:06:19.748Z,7.41
2023-04-09T05:07:20.544Z,7.42
2023-04-09T05:08:21.345Z,7.44
2023-04-09T05:09:22.516Z,7.47
2023-04-09T05:10:22.869Z,7.47
2023-04-09T05:11:23.612Z,7.44
2023-04-09T05:12:24.455Z,7.44
2023-04-09T05:13:25.359Z,7.45
2023-04-09T05:14:26.379Z,7.47
2023-04-09T05:15:27.291Z,7.44
2023-04-09T05:16:28.151Z,7.42
2023-04-09T05:17:29.161Z,7.42
2023-04-09T05:18:29.984Z,7.44
2023-04-09T05:19:32.025Z,7.44
2023-04-09T05:20:31.840Z,7.44
2023-04-09T05:21:32.604Z,7.44
2023-04-09T05:22:33.560Z,7.44
2023-04-09T05:23:34.425Z,7.44
2023-04-09T05:24:35.271Z,7.45
2023-04-09T05:25:36.087Z,7.48
2023-04-09T05:26:36.853Z,7.45
2023-04-09T05:27:37.589Z,7.48
2023-04-09T05:28:38.346Z,7.48
2023-04-09T05:29:39.062Z,7.48
2023-04-09T05:30:39.836Z,7.51
2023-04-09T05:31:40.565Z,7.48
2023-04-09T05:32:41.427Z,7.48
2023-04-09T05:33:42.126Z,7.48
2023-04-09T05:34:42.876Z,7.48
2023-04-09T05:35:43.700Z,7.51
2023-04-09T05:36:44.665Z,7.51
2023-04-09T05:37:45.478Z,7.54
2023-04-09T05:38:46.329Z,7.52
2023-04-09T05:39:47.154Z,7.54
2023-04-09T05:40:47.886Z,7.52
2023-04-09T05:41:48.688Z,7.58
2023-04-09T05:42:49.443Z,7.57
2023-04-09T05:43:50.371Z,7.57
2023-04-09T05:44:51.302Z,7.62
2023-04-09T05:45:52.035Z,7.63
2023-04-09T05:46:52.778Z,7.60
2023-04-09T05:47:53.551Z,7.62
2023-04-09T05:48:54.432Z,7.63
2023-04-09T05:49:55.249Z,7.66
2023-04-09T05:50:56.145Z,7.63
2023-04-09T05:51:56.886Z,7.67
2023-04-09T05:52:57.586Z,7.67
2023-04-09T05:53:58.263Z,7.69
2023-04-09T05:54:58.948Z,7.69
2023-04-09T05:55:59.706Z,7.70
2023-04-09T05:57:00.436Z,7.71
2023-04-09T05:58:01.163Z,7.70
2023-04-09T05:59:01.976Z,7.70
2023-04-09T06:00:02.688Z,7.74
2023-04-09T06:01:03.415Z,7.74
2023-04-09T06:02:04.183Z,7.74
2023-04-09T06:03:05.140Z,7.76
2023-04-09T06:04:06.251Z,7.79
2023-04-09T06:05:06.929Z,7.82
2023-04-09T06:06:07.095Z,7.81
2023-04-09T06:07:07.799Z,7.84
2023-04-09T06:08:08.722Z,7.85
2023-04-09T06:09:09.464Z,7.86
2023-04-09T06:10:10.145Z,7.85
2023-04-09T06:11:10.850Z,7.88
2023-04-09T06:12:11.593Z,7.88
2023-04-09T06:13:12.305Z,7.89
2023-04-09T06:14:13.242Z,7.91
2023-04-09T06:15:13.982Z,7.94
2023-04-09T06:16:14.941Z,7.95
2023-04-09T06:17:15.775Z,7.94
2023-04-09T06:18:16.505Z,7.95
2023-04-09T06:19:17.233Z,7.99
2023-04-09T06:20:18.029Z,7.99
2023-04-09T06:21:18.708Z,8.00
2023-04-09T06:22:19.524Z,8.02
2023-04-09T06:23:20.346Z,8.03
2023-04-09T06:24:21.108Z,8.02
2023-04-09T06:25:21.831Z,8.04
2023-04-09T06:26:22.526Z,8.04
2023-04-09T06:27:23.245Z,8.04
2023-04-09T06:28:23.968Z,8.06
2023-04-09T06:29:24.666Z,8.04
2023-04-09T06:30:25.375Z,8.07
2023-04-09T06:31:26.134Z,8.06
2023-04-09T06:32:26.868Z,8.06
2023-04-09T06:33:27.648Z,8.09
2023-04-09T06:34:28.480Z,8.10
2023-04-09T06:35:29.274Z,8.07
2023-04-09T06:36:29.987Z,8.12
2023-04-09T06:37:30.716Z,8.12
2023-04-09T06:38:31.455Z,8.12
2023-04-09T06:39:32.174Z,8.13
2023-04-09T06:40:32.892Z,8.14
2023-04-09T06:41:33.593Z,8.17
2023-04-09T06:42:34.346Z,8.17
2023-04-09T06:43:35.139Z,8.21
2023-04-09T06:44:35.845Z,8.20
2023-04-09T06:45:36.591Z,8.21
2023-04-09T06:46:37.333Z,8.22
2023-04-09T06:47:38.105Z,8.24
2023-04-09T06:48:38.809Z,8.25
2023-04-09T06:49:39.536Z,8.28
2023-04-09T06:50:40.357Z,8.28
2023-04-09T06:51:41.103Z,8.29
2023-04-09T06:52:41.787Z,8.31
2023-04-09T06:53:42.542Z,8.32
2023-04-09T06:54:43.256Z,8.32
2023-04-09T06:55:43.949Z,8.34
2023-04-09T06:56:44.723Z,8.34
2023-04-09T06:57:45.415Z,8.37
2023-04-09T06:58:46.243Z,8.37
2023-04-09T06:59:47.089Z,8.40
2023-04-09T07:00:47.795Z,8.42
2023-04-09T07:01:50.725Z,8.43
2023-04-09T07:02:49.428Z,8.47
2023-04-09T07:03:50.037Z,8.50
2023-04-09T07:04:50.368Z,8.50
2023-04-09T07:05:51.104Z,8.50
2023-04-09T07:06:51.956Z,8.52
2023-04-09T07:07:52.731Z,8.57
2023-04-09T07:08:53.635Z,8.57
2023-04-09T07:09:54.594Z,8.58
2023-04-09T07:10:55.314Z,8.61
2023-04-09T07:11:56.064Z,8.67
2023-04-09T07:12:56.732Z,8.68
2023-04-09T07:13:57.460Z,8.67
2023-04-09T07:14:58.182Z,8.70
2023-04-09T07:15:59.007Z,8.75
2023-04-09T07:16:59.692Z,8.78
2023-04-09T07:18:00.415Z,8.78
2023-04-09T07:19:01.193Z,8.79
2023-04-09T07:20:01.919Z,8.83
2023-04-09T07:21:03.342Z,8.85
2023-04-09T07:22:03.520Z,8.88
2023-04-09T07:23:04.249Z,8.89
2023-04-09T07:24:04.929Z,8.89
2023-04-09T07:25:05.648Z,8.94
2023-04-09T07:26:06.380Z,8.97
2023-04-09T07:27:07.087Z,8.97
2023-04-09T07:28:07.782Z,9.00
2023-04-09T07:29:08.467Z,9.00
2023-04-09T07:30:09.181Z,9.01
2023-04-09T07:31:09.955Z,9.06
2023-04-09T07:32:10.665Z,9.06
2023-04-09T07:33:11.404Z,9.10
2023-04-09T07:34:12.125Z,9.13
2023-04-09T07:35:13.041Z,9.15
2023-04-09T07:36:13.785Z,9.19
2023-04-09T07:37:14.528Z,9.22
2023-04-09T07:38:15.332Z,9.22
2023-04-09T07:39:16.047Z,9.24
2023-04-09T07:40:16.900Z,9.27
2023-04-09T07:41:17.600Z,9.30
2023-04-09T07:42:18.327Z,9.31
2023-04-09T07:43:20.786Z,9.37
2023-04-09T07:44:19.932Z,9.37
2023-04-09T07:45:20.659Z,9.40
2023-04-09T07:46:21.381Z,9.42
2023-04-09T07:47:22.123Z,9.45
2023-04-09T07:48:22.820Z,9.49
2023-04-09T07:49:23.495Z,9.52
2023-04-09T07:50:24.397Z,9.55
2023-04-09T07:51:25.103Z,9.58
2023-04-09T07:52:25.872Z,9.63
2023-04-09T07:53:26.630Z,9.67
2023-04-09T07:54:27.291Z,9.68
2023-04-09T07:55:28.012Z,9.73
2023-04-09T07:56:28.679Z,9.77
2023-04-09T07:57:29.362Z,9.83
2023-04-09T07:58:30.053Z,9.85
2023-04-09T07:59:30.747Z,9.92
2023-04-09T08:00:31.438Z,10.06
2023-04-09T08:01:32.178Z,10.13
2023-04-09T08:02:33.030Z,10.16
2023-04-09T08:03:34.061Z,10.24
2023-04-09T08:04:35.000Z,10.29
2023-04-09T08:05:35.740Z,10.35
2023-04-09T08:06:36.456Z,10.42
2023-04-09T08:07:37.219Z,10.44
2023-04-09T08:08:37.932Z,10.49
2023-04-09T08:09:38.655Z,10.52
2023-04-09T08:10:39.459Z,10.60
2023-04-09T08:11:40.173Z,10.63
2023-04-09T08:12:40.871Z,10.70
2023-04-09T08:13:41.582Z,10.76
2023-04-09T08:14:42.346Z,10.83
2023-04-09T08:15:43.076Z,10.88
2023-04-09T08:16:43.847Z,10.95
2023-04-09T08:17:44.733Z,10.98
2023-04-09T08:18:45.451Z,11.03
2023-04-09T08:19:46.164Z,11.12
2023-04-09T08:20:46.951Z,11.21
2023-04-09T08:21:47.713Z,11.35
2023-04-09T08:22:48.414Z,11.41
2023-04-09T08:23:49.124Z,11.54
2023-04-09T08:24:49.981Z,11.69
2023-04-09T08:25:50.696Z,11.84
2023-04-09T08:26:51.395Z,11.98
2023-04-09T08:27:52.088Z,12.12
2023-04-09T08:28:52.987Z,12.25
2023-04-09T08:29:53.820Z,12.40
2023-04-09T08:30:54.634Z,12.54
2023-04-09T08:31:55.447Z,12.63
2023-04-09T08:32:56.245Z,12.76
2023-04-09T08:33:57.019Z,12.84
2023-04-09T08:34:57.726Z,12.95
2023-04-09T08:35:58.448Z,13.07
2023-04-09T08:36:59.142Z,13.14
2023-04-09T08:37:59.857Z,13.25
2023-04-09T08:39:00.628Z,13.32
2023-04-09T08:40:01.361Z,13.43
2023-04-09T08:41:02.117Z,13.48
2023-04-09T08:42:02.811Z,13.53
2023-04-09T08:43:03.549Z,13.57
2023-04-09T08:44:04.247Z,13.66
2023-04-09T08:45:04.980Z,13.69
2023-04-09T08:46:05.741Z,13.80
2023-04-09T08:47:06.454Z,13.87
2023-04-09T08:48:07.210Z,13.90
2023-04-09T08:49:07.982Z,13.90
2023-04-09T08:50:08.721Z,13.91
2023-04-09T08:51:09.416Z,13.99
2023-04-09T08:52:10.156Z,14.09
2023-04-09T08:53:10.884Z,14.16
2023-04-09T08:54:11.606Z,14.17
2023-04-09T08:55:12.398Z,14.21
2023-04-09T08:56:19.631Z,14.23
2023-04-09T08:57:13.993Z,14.29
2023-04-09T08:58:14.928Z,14.30
2023-04-09T08:59:15.609Z,14.31
2023-04-09T09:00:16.362Z,14.35
2023-04-09T09:01:17.117Z,14.35
2023-04-09T09:02:17.837Z,14.34
2023-04-09T09:03:18.612Z,14.35
2023-04-09T09:04:19.420Z,14.41
2023-04-09T09:05:20.145Z,14.42
2023-04-09T09:06:20.850Z,14.49
2023-04-09T09:07:21.559Z,14.52
2023-04-09T09:08:22.250Z,14.59
2023-04-09T09:09:22.961Z,14.63
2023-04-09T09:10:23.794Z,14.66
2023-04-09T09:11:24.498Z,14.66
2023-04-09T09:12:26.019Z,14.74
2023-04-09T09:13:26.141Z,14.78
2023-04-09T09:14:26.907Z,14.85
2023-04-09T09:15:27.575Z,14.91
2023-04-09T09:16:28.304Z,14.86
2023-04-09T09:17:29.076Z,14.93
2023-04-09T09:18:29.779Z,15.00
2023-04-09T09:19:30.501Z,14.94
2023-04-09T09:20:31.220Z,14.93
2023-04-09T09:21:31.925Z,14.93
2023-04-09T09:22:32.633Z,14.94
2023-04-09T09:23:33.338Z,14.91
2023-04-09T09:24:34.080Z,14.80
2023-04-09T09:40:05.826Z,15.25
2023-04-09T09:41:07.695Z,15.33
2023-04-09T09:42:08.340Z,15.38
2023-04-09T09:43:09.120Z,15.37
2023-04-09T09:44:09.854Z,15.37
2023-04-09T09:45:10.549Z,15.38
2023-04-09T09:46:11.289Z,15.46
2023-04-09T09:47:11.979Z,15.58
2023-04-09T09:48:12.760Z,15.56
2023-04-09T09:49:13.470Z,15.58
2023-04-09T09:50:14.248Z,15.59
2023-04-09T09:51:14.983Z,15.71
2023-04-09T09:52:15.709Z,15.74
2023-04-09T09:53:16.414Z,15.81
2023-04-09T09:54:17.131Z,15.73
2023-04-09T09:55:17.870Z,15.55
2023-04-09T09:56:18.554Z,15.51
2023-04-09T09:57:19.257Z,15.43
2023-04-09T09:58:19.967Z,15.41
2023-04-09T09:59:20.706Z,15.43
2023-04-09T10:00:23.369Z,15.51
2023-04-09T10:01:22.365Z,15.55
2023-04-09T10:02:23.285Z,15.53
2023-04-09T10:03:24.143Z,15.59
2023-04-09T10:04:24.824Z,15.60
2023-04-09T10:05:25.540Z,15.62
2023-04-09T10:06:26.252Z,15.73
2023-04-09T10:07:26.955Z,15.80
2023-04-09T10:08:27.663Z,15.85
2023-04-09T10:09:28.368Z,15.89
2023-04-09T10:10:30.591Z,15.95
2023-04-09T10:11:30.141Z,15.99
2023-04-09T10:12:30.842Z,16.06
2023-04-09T10:13:31.595Z,15.99
2023-04-09T10:14:32.360Z,15.98
2023-04-09T10:15:33.125Z,15.99
2023-04-09T10:16:33.860Z,15.99
2023-04-09T10:17:34.632Z,15.93
2023-04-09T10:18:35.330Z,15.88
2023-04-09T10:19:36.055Z,15.88
2023-04-09T10:20:36.808Z,15.86
2023-04-09T10:21:38.080Z,15.93
2023-04-09T10:22:38.199Z,15.96
2023-04-09T10:23:38.943Z,16.04
2023-04-09T10:24:39.657Z,16.08
2023-04-09T10:25:40.345Z,16.16
2023-04-09T10:26:41.068Z,16.23
2023-04-09T10:27:41.773Z,16.10
2023-04-09T10:28:42.556Z,16.07
2023-04-09T10:29:43.240Z,16.13
2023-04-09T10:30:43.946Z,16.11
2023-04-09T10:31:44.679Z,16.13
2023-04-09T10:32:45.419Z,16.14
2023-04-09T10:33:46.134Z,16.17
2023-04-09T10:34:46.922Z,16.16
2023-04-09T10:35:47.768Z,15.99
2023-04-09T10:36:48.471Z,15.91
2023-04-09T10:37:49.149Z,15.77
2023-04-09T10:38:49.911Z,15.60
2023-04-09T10:39:50.623Z,15.49
2023-04-09T10:40:51.348Z,15.34
2023-04-09T10:41:52.094Z,15.20
2023-04-09T10:42:52.817Z,15.07
2023-04-09T10:43:53.543Z,14.95
2023-04-09T10:44:54.231Z,14.79
2023-04-09T10:45:54.947Z,14.69
2023-04-09T10:46:55.690Z,14.53
2023-04-09T10:47:56.434Z,14.45
2023-04-09T10:48:57.110Z,14.39
2023-04-09T10:49:57.826Z,14.31
2023-04-09T10:50:58.551Z,14.29
2023-04-09T10:51:59.289Z,14.21
2023-04-09T10:52:59.966Z,14.19
2023-04-09T10:54:00.665Z,14.12
2023-04-09T10:55:01.379Z,14.05
2023-04-09T10:56:02.171Z,14.09
2023-04-09T10:57:02.848Z,14.02
2023-04-09T10:58:03.549Z,14.01
2023-04-09T10:59:04.288Z,13.96
2023-04-09T11:00:05.100Z,13.96
2023-04-09T11:01:05.823Z,14.06
2023-04-09T11:02:06.713Z,14.17
2023-04-09T11:03:07.681Z,14.29
2023-04-09T11:04:10.176Z,14.34
2023-04-09T11:05:08.551Z,14.39
2023-04-09T11:06:09.471Z,14.38
2023-04-09T11:07:10.198Z,14.36
2023-04-09T11:08:11.051Z,14.35
2023-04-09T11:09:11.781Z,14.41
2023-04-09T11:10:12.689Z,14.48
2023-04-09T11:11:13.387Z,14.64
2023-04-09T11:12:14.769Z,14.72
2023-04-09T17:22:04.432Z,13.01
2023-04-09T17:23:06.379Z,13.03
2023-04-09T17:24:07.076Z,12.99
2023-04-09T17:25:07.803Z,13.03
2023-04-09T17:26:08.517Z,13.03
2023-04-09T17:27:09.214Z,13.01
2023-04-09T17:28:09.897Z,12.98
2023-04-09T17:29:10.616Z,12.98
2023-04-09T17:30:11.319Z,12.96
2023-04-09T17:31:12.083Z,12.96
2023-04-09T17:32:12.821Z,12.96
2023-04-09T17:33:13.536Z,12.99
2023-04-09T17:34:14.229Z,12.95
2023-04-09T17:35:14.949Z,12.91
2023-04-09T17:36:15.636Z,12.92
2023-04-09T17:37:16.392Z,12.92
2023-04-09T17:38:17.077Z,12.92
2023-04-09T17:39:20.393Z,12.89
2023-04-09T17:40:20.914Z,12.88
2023-04-09T17:41:20.108Z,12.88
2023-04-09T17:42:23.859Z,12.87
2023-04-09T17:43:28.713Z,12.87
2023-04-09T17:44:22.037Z,12.87
2023-04-09T17:45:22.989Z,12.85
2023-04-09T17:46:24.867Z,12.84
2023-04-09T17:47:24.547Z,12.84
2023-04-09T17:48:26.390Z,12.80
2023-04-09T17:49:26.085Z,12.79
2023-04-09T17:50:27.496Z,12.77
2023-04-09T17:51:27.648Z,12.74
2023-04-09T17:52:28.574Z,12.76
2023-04-09T17:53:29.295Z,12.70
2023-04-09T17:54:30.021Z,12.76
2023-04-09T17:55:30.726Z,12.74
2023-04-09T17:56:32.359Z,12.70
2023-04-09T17:57:32.604Z,12.70
2023-04-09T17:58:33.819Z,12.70
2023-04-09T17:59:34.166Z,12.66
2023-04-09T18:00:36.410Z,12.67
2023-04-09T18:01:36.248Z,12.63
2023-04-09T18:02:37.311Z,12.62
2023-04-09T18:03:37.958Z,12.63
2023-04-09T18:04:39.590Z,12.59
2023-04-09T18:05:39.604Z,12.56
2023-04-09T18:06:39.953Z,12.56
2023-04-09T18:07:40.926Z,12.55
2023-04-09T18:08:42.457Z,12.55
2023-04-09T18:09:43.619Z,12.54
2023-04-09T18:10:43.481Z,12.51
2023-04-09T18:11:44.385Z,12.51
2023-04-09T18:12:45.451Z,12.46
2023-04-09T18:13:46.335Z,12.43
2023-04-09T18:14:48.900Z,12.44
2023-04-09T18:15:48.371Z,12.43
2023-04-09T18:16:51.252Z,12.38
2023-04-09T18:17:49.790Z,12.37
2023-04-09T18:18:53.294Z,12.38
2023-04-09T18:23:17.949Z,12.31
2023-04-09T18:24:23.234Z,12.30
2023-04-09T18:25:21.257Z,12.26
2023-04-09T18:26:21.981Z,12.22
2023-04-09T18:27:25.265Z,12.19
2023-04-09T18:28:26.352Z,12.18
2023-04-09T18:29:25.847Z,12.16
2023-04-09T18:30:28.210Z,12.18
2023-04-09T18:31:29.297Z,12.12
2023-04-09T18:32:26.154Z,12.11
2023-04-09T18:33:26.885Z,12.11
2023-04-09T18:34:27.239Z,12.03
2023-04-09T18:35:28.434Z,12.04
2023-04-09T18:36:28.737Z,12.00
2023-04-09T18:37:29.529Z,12.01
2023-04-09T18:38:30.332Z,11.93
2023-04-09T18:39:33.603Z,11.93
2023-04-09T18:40:32.772Z,11.90
2023-04-09T18:41:33.023Z,11.84
2023-04-09T18:42:33.878Z,11.82
2023-04-09T18:43:35.406Z,11.78
2023-04-09T18:44:35.725Z,11.77
2023-04-09T18:45:36.547Z,11.72
2023-04-09T18:46:37.831Z,11.70
2023-04-09T18:47:38.280Z,11.67
2023-04-09T18:48:40.729Z,11.67
2023-04-09T18:49:40.747Z,11.62
2023-04-09T18:50:41.366Z,11.59
2023-04-09T18:51:42.427Z,11.57
2023-04-09T18:52:42.064Z,11.51
2023-04-09T18:53:43.796Z,11.49
2023-04-09T18:54:52.512Z,11.48
2023-04-09T18:55:44.157Z,11.46
2023-04-09T18:56:46.559Z,11.42
2023-04-09T18:57:48.131Z,11.39
2023-04-09T18:58:46.813Z,11.33
2023-04-09T18:59:48.166Z,11.35
2023-04-09T19:00:48.642Z,11.30
2023-04-09T19:01:49.655Z,11.24
2023-04-09T19:02:51.084Z,11.23
2023-04-09T19:03:55.285Z,11.21
2023-04-09T19:04:53.340Z,11.19
2023-04-09T19:05:53.146Z,11.13
2023-04-09T19:06:54.110Z,11.08
2023-04-09T19:07:54.647Z,11.08
2023-04-09T19:09:01.122Z,11.03
2023-04-09T19:09:59.028Z,11.01
2023-04-09T19:10:58.080Z,10.98
2023-04-09T19:12:20.712Z,10.93
2023-04-09T19:13:01.621Z,10.93
2023-04-09T19:13:59.570Z,10.90
2023-04-09T19:15:00.907Z,10.86
2023-04-09T19:16:00.475Z,10.81
2023-04-09T19:17:05.213Z,10.80
2023-04-09T19:18:02.943Z,10.80
2023-04-09T19:19:04.194Z,10.76
2023-04-09T19:20:04.625Z,10.73
2023-04-09T19:21:04.633Z,10.70
2023-04-09T19:22:05.907Z,10.70
2023-04-09T19:23:07.225Z,10.68
2023-04-09T19:24:07.202Z,10.66
2023-04-09T19:25:07.490Z,10.63
2023-04-09T19:26:08.175Z,10.62
2023-04-09T19:27:08.153Z,10.58
2023-04-09T19:28:09.930Z,10.55
2023-04-09T19:29:13.781Z,10.51
2023-04-09T19:30:13.803Z,10.51
2023-04-09T19:31:11.398Z,10.46
2023-04-09T19:32:15.269Z,10.44
